sensor_id;sensor_type;location;lat;lon;timestamp;P1;durP1;ratioP1;P2;durP2;ratioP2
3197;SDS011;1611;49.394;11.136;2022-08-19T00:01:54;31.50;;;28.40;;
3197;SDS011;1611;49.394;11.136;2022-08-19T00:04:24;32.40;;;29.30;;
3197;SDS011;1611;49.394;11.136;2022-08-19T00:06:53;31.33;;;27.90;;
3197;SDS011;1611;49.394;11.136;2022-08-19T00:09:21;32.43;;;29.10;;
3197;SDS011;1611;49.394;11.136;2022-08-19T00:11:50;33.10;;;29.60;;
3197;SDS011;1611;49.394;11.136;2022-08-19T00:14:18;32.10;;;28.77;;
3197;SDS011;1611;49.394;11.136;2022-08-19T00:16:47;33.83;;;30.30;;
3197;SDS011;1611;49.394;11.136;2022-08-19T00:19:16;38.33;;;34.07;;
3197;SDS011;1611;49.394;11.136;2022-08-19T00:21:43;31.10;;;27.90;;
3197;SDS011;1611;49.394;11.136;2022-08-19T00:24:11;34.87;;;30.87;;
3197;SDS011;1611;49.394;11.136;2022-08-19T00:26:39;30.97;;;28.00;;
3197;SDS011;1611;49.394;11.136;2022-08-19T00:29:09;38.37;;;34.33;;
3197;SDS011;1611;49.394;11.136;2022-08-19T00:31:37;34.00;;;30.37;;
3197;SDS011;1611;49.394;11.136;2022-08-19T00:34:04;36.00;;;32.10;;
3197;SDS011;1611;49.394;11.136;2022-08-19T00:36:31;31.10;;;28.00;;
3197;SDS011;1611;49.394;11.136;2022-08-19T00:38:58;31.37;;;28.27;;
3197;SDS011;1611;49.394;11.136;2022-08-19T00:41:25;30.80;;;27.53;;
3197;SDS011;1611;49.394;11.136;2022-08-19T00:43:56;34.70;;;30.60;;
3197;SDS011;1611;49.394;11.136;2022-08-19T00:46:26;34.27;;;30.70;;
3197;SDS011;1611;49.394;11.136;2022-08-19T00:48:53;32.90;;;29.67;;
3197;SDS011;1611;49.394;11.136;2022-08-19T00:51:21;32.83;;;29.20;;
3197;SDS011;1611;49.394;11.136;2022-08-19T00:53:49;31.70;;;28.67;;
3197;SDS011;1611;49.394;11.136;2022-08-19T00:56:16;32.63;;;29.33;;
3197;SDS011;1611;49.394;11.136;2022-08-19T00:58:43;36.33;;;30.00;;
3197;SDS011;1611;49.394;11.136;2022-08-19T01:01:10;34.43;;;30.83;;
3197;SDS011;1611;49.394;11.136;2022-08-19T01:03:40;31.47;;;28.40;;
3197;SDS011;1611;49.394;11.136;2022-08-19T01:06:07;33.83;;;30.27;;
3197;SDS011;1611;49.394;11.136;2022-08-19T01:08:33;32.73;;;29.43;;
3197;SDS011;1611;49.394;11.136;2022-08-19T01:11:00;32.37;;;28.97;;
3197;SDS011;1611;49.394;11.136;2022-08-19T01:13:28;32.07;;;28.67;;
3197;SDS011;1611;49.394;11.136;2022-08-19T01:16:00;30.30;;;27.27;;
3197;SDS011;1611;49.394;11.136;2022-08-19T01:18:28;30.20;;;27.23;;
3197;SDS011;1611;49.394;11.136;2022-08-19T01:21:00;28.70;;;25.67;;
3197;SDS011;1611;49.394;11.136;2022-08-19T01:23:32;29.67;;;26.47;;
3197;SDS011;1611;49.394;11.136;2022-08-19T01:26:09;29.57;;;26.50;;
3197;SDS011;1611;49.394;11.136;2022-08-19T01:28:38;32.20;;;25.77;;
3197;SDS011;1611;49.394;11.136;2022-08-19T01:31:06;31.60;;;26.40;;
3197;SDS011;1611;49.394;11.136;2022-08-19T01:33:36;30.43;;;27.30;;
3197;SDS011;1611;49.394;11.136;2022-08-19T01:36:04;28.57;;;25.47;;
3197;SDS011;1611;49.394;11.136;2022-08-19T01:38:35;27.33;;;24.60;;
3197;SDS011;1611;49.394;11.136;2022-08-19T01:41:03;31.07;;;27.77;;
3197;SDS011;1611;49.394;11.136;2022-08-19T01:43:31;31.17;;;27.87;;
3197;SDS011;1611;49.394;11.136;2022-08-19T01:45:58;29.30;;;26.30;;
3197;SDS011;1611;49.394;11.136;2022-08-19T01:48:25;28.83;;;25.93;;
3197;SDS011;1611;49.394;11.136;2022-08-19T01:50:54;28.20;;;25.40;;
3197;SDS011;1611;49.394;11.136;2022-08-19T01:53:20;31.90;;;28.47;;
3197;SDS011;1611;49.394;11.136;2022-08-19T01:55:49;29.50;;;26.57;;
3197;SDS011;1611;49.394;11.136;2022-08-19T01:58:16;27.30;;;24.47;;
3197;SDS011;1611;49.394;11.136;2022-08-19T02:00:46;29.37;;;26.47;;
3197;SDS011;1611;49.394;11.136;2022-08-19T02:03:13;32.87;;;29.23;;
3197;SDS011;1611;49.394;11.136;2022-08-19T02:05:41;30.93;;;27.87;;
3197;SDS011;1611;49.394;11.136;2022-08-19T02:08:08;32.80;;;29.50;;
3197;SDS011;1611;49.394;11.136;2022-08-19T02:10:38;30.67;;;27.27;;
3197;SDS011;1611;49.394;11.136;2022-08-19T02:13:07;36.60;;;28.93;;
3197;SDS011;1611;49.394;11.136;2022-08-19T02:15:34;38.60;;;28.80;;
3197;SDS011;1611;49.394;11.136;2022-08-19T02:18:01;29.50;;;26.60;;
3197;SDS011;1611;49.394;11.136;2022-08-19T02:20:27;29.57;;;26.43;;
3197;SDS011;1611;49.394;11.136;2022-08-19T02:22:54;30.37;;;27.33;;
3197;SDS011;1611;49.394;11.136;2022-08-19T02:25:21;30.37;;;27.10;;
3197;SDS011;1611;49.394;11.136;2022-08-19T02:27:48;27.83;;;25.10;;
3197;SDS011;1611;49.394;11.136;2022-08-19T02:30:16;32.60;;;29.20;;
3197;SDS011;1611;49.394;11.136;2022-08-19T02:32:44;32.00;;;28.40;;
3197;SDS011;1611;49.394;11.136;2022-08-19T02:35:11;32.37;;;28.33;;
3197;SDS011;1611;49.394;11.136;2022-08-19T02:37:39;42.83;;;29.87;;
3197;SDS011;1611;49.394;11.136;2022-08-19T02:40:23;32.27;;;28.93;;
3197;SDS011;1611;49.394;11.136;2022-08-19T02:42:50;29.97;;;26.70;;
3197;SDS011;1611;49.394;11.136;2022-08-19T02:45:19;32.70;;;29.20;;
3197;SDS011;1611;49.394;11.136;2022-08-19T02:47:45;30.80;;;27.53;;
3197;SDS011;1611;49.394;11.136;2022-08-19T02:50:12;37.80;;;30.30;;
3197;SDS011;1611;49.394;11.136;2022-08-19T02:52:39;29.90;;;26.80;;
3197;SDS011;1611;49.394;11.136;2022-08-19T02:55:07;30.23;;;27.03;;
3197;SDS011;1611;49.394;11.136;2022-08-19T02:57:34;32.77;;;29.27;;
3197;SDS011;1611;49.394;11.136;2022-08-19T03:00:02;32.13;;;28.77;;
3197;SDS011;1611;49.394;11.136;2022-08-19T03:02:32;37.90;;;31.53;;
3197;SDS011;1611;49.394;11.136;2022-08-19T03:04:59;32.60;;;29.10;;
3197;SDS011;1611;49.394;11.136;2022-08-19T03:07:26;32.93;;;29.43;;
3197;SDS011;1611;49.394;11.136;2022-08-19T03:09:53;30.70;;;27.50;;
3197;SDS011;1611;49.394;11.136;2022-08-19T03:12:20;34.40;;;30.80;;
3197;SDS011;1611;49.394;11.136;2022-08-19T03:14:47;35.40;;;31.70;;
3197;SDS011;1611;49.394;11.136;2022-08-19T03:17:13;35.20;;;31.47;;
3197;SDS011;1611;49.394;11.136;2022-08-19T03:19:41;34.43;;;29.73;;
3197;SDS011;1611;49.394;11.136;2022-08-19T03:22:09;35.27;;;31.67;;
3197;SDS011;1611;49.394;11.136;2022-08-19T03:24:35;38.73;;;31.87;;
3197;SDS011;1611;49.394;11.136;2022-08-19T03:27:03;34.73;;;30.80;;
3197;SDS011;1611;49.394;11.136;2022-08-19T03:29:30;31.50;;;28.23;;
3197;SDS011;1611;49.394;11.136;2022-08-19T03:31:58;32.60;;;29.20;;
3197;SDS011;1611;49.394;11.136;2022-08-19T03:34:29;34.07;;;30.07;;
3197;SDS011;1611;49.394;11.136;2022-08-19T03:36:59;37.03;;;33.03;;
3197;SDS011;1611;49.394;11.136;2022-08-19T03:39:30;34.10;;;29.97;;
3197;SDS011;1611;49.394;11.136;2022-08-19T03:41:57;35.60;;;31.43;;
3197;SDS011;1611;49.394;11.136;2022-08-19T03:44:27;37.60;;;32.00;;
3197;SDS011;1611;49.394;11.136;2022-08-19T03:46:57;38.73;;;31.20;;
3197;SDS011;1611;49.394;11.136;2022-08-19T03:49:26;33.03;;;29.60;;
3197;SDS011;1611;49.394;11.136;2022-08-19T03:51:55;32.70;;;28.93;;
3197;SDS011;1611;49.394;11.136;2022-08-19T03:54:26;36.70;;;30.90;;
3197;SDS011;1611;49.394;11.136;2022-08-19T03:56:53;34.63;;;30.80;;
3197;SDS011;1611;49.394;11.136;2022-08-19T03:59:22;31.27;;;27.80;;
3197;SDS011;1611;49.394;11.136;2022-08-19T04:01:52;31.80;;;28.47;;
3197;SDS011;1611;49.394;11.136;2022-08-19T04:04:20;36.20;;;31.53;;
3197;SDS011;1611;49.394;11.136;2022-08-19T04:06:47;38.60;;;31.10;;
3197;SDS011;1611;49.394;11.136;2022-08-19T04:09:16;33.90;;;30.03;;
3197;SDS011;1611;49.394;11.136;2022-08-19T04:11:43;34.57;;;30.97;;
3197;SDS011;1611;49.394;11.136;2022-08-19T04:14:12;36.27;;;32.47;;
3197;SDS011;1611;49.394;11.136;2022-08-19T04:16:40;38.10;;;31.47;;
3197;SDS011;1611;49.394;11.136;2022-08-19T04:19:08;40.90;;;31.07;;
3197;SDS011;1611;49.394;11.136;2022-08-19T04:21:35;32.80;;;29.03;;
3197;SDS011;1611;49.394;11.136;2022-08-19T04:24:02;35.17;;;31.27;;
3197;SDS011;1611;49.394;11.136;2022-08-19T04:26:32;40.43;;;29.00;;
3197;SDS011;1611;49.394;11.136;2022-08-19T04:29:00;36.57;;;31.70;;
3197;SDS011;1611;49.394;11.136;2022-08-19T04:31:31;36.17;;;32.30;;
3197;SDS011;1611;49.394;11.136;2022-08-19T04:34:00;43.50;;;33.33;;
3197;SDS011;1611;49.394;11.136;2022-08-19T04:36:30;46.70;;;36.00;;
3197;SDS011;1611;49.394;11.136;2022-08-19T04:38:59;38.73;;;32.73;;
3197;SDS011;1611;49.394;11.136;2022-08-19T04:41:32;41.10;;;33.73;;
3197;SDS011;1611;49.394;11.136;2022-08-19T04:44:17;32.47;;;28.83;;
3197;SDS011;1611;49.394;11.136;2022-08-19T04:46:44;36.90;;;32.40;;
3197;SDS011;1611;49.394;11.136;2022-08-19T04:49:12;42.43;;;35.17;;
3197;SDS011;1611;49.394;11.136;2022-08-19T04:51:39;36.90;;;33.07;;
3197;SDS011;1611;49.394;11.136;2022-08-19T04:54:08;39.60;;;35.20;;
3197;SDS011;1611;49.394;11.136;2022-08-19T04:56:36;38.53;;;33.63;;
3197;SDS011;1611;49.394;11.136;2022-08-19T04:59:04;38.00;;;31.20;;
3197;SDS011;1611;49.394;11.136;2022-08-19T05:01:31;35.80;;;30.90;;
3197;SDS011;1611;49.394;11.136;2022-08-19T05:04:00;35.67;;;31.87;;
3197;SDS011;1611;49.394;11.136;2022-08-19T05:06:29;34.77;;;29.50;;
3197;SDS011;1611;49.394;11.136;2022-08-19T05:08:58;35.90;;;31.20;;
3197;SDS011;1611;49.394;11.136;2022-08-19T05:11:27;34.43;;;30.73;;
3197;SDS011;1611;49.394;11.136;2022-08-19T05:13:57;33.00;;;29.60;;
3197;SDS011;1611;49.394;11.136;2022-08-19T05:16:25;34.77;;;31.00;;
3197;SDS011;1611;49.394;11.136;2022-08-19T05:18:52;30.73;;;27.47;;
3197;SDS011;1611;49.394;11.136;2022-08-19T05:21:37;42.83;;;33.80;;
3197;SDS011;1611;49.394;11.136;2022-08-19T05:24:23;39.93;;;33.37;;
3197;SDS011;1611;49.394;11.136;2022-08-19T05:26:50;39.97;;;33.50;;
3197;SDS011;1611;49.394;11.136;2022-08-19T05:29:23;37.23;;;32.87;;
3197;SDS011;1611;49.394;11.136;2022-08-19T05:31:52;34.23;;;30.53;;
3197;SDS011;1611;49.394;11.136;2022-08-19T05:34:19;36.57;;;31.70;;
3197;SDS011;1611;49.394;11.136;2022-08-19T05:36:51;40.77;;;32.90;;
3197;SDS011;1611;49.394;11.136;2022-08-19T05:39:22;32.53;;;27.97;;
3197;SDS011;1611;49.394;11.136;2022-08-19T05:41:51;33.47;;;29.80;;
3197;SDS011;1611;49.394;11.136;2022-08-19T05:44:23;32.37;;;28.90;;
3197;SDS011;1611;49.394;11.136;2022-08-19T05:46:50;33.43;;;28.17;;
3197;SDS011;1611;49.394;11.136;2022-08-19T05:49:19;31.27;;;28.17;;
3197;SDS011;1611;49.394;11.136;2022-08-19T05:51:47;33.70;;;28.73;;
3197;SDS011;1611;49.394;11.136;2022-08-19T05:54:14;32.30;;;27.93;;
3197;SDS011;1611;49.394;11.136;2022-08-19T05:56:41;33.27;;;29.70;;
3197;SDS011;1611;49.394;11.136;2022-08-19T05:59:09;30.47;;;27.07;;
3197;SDS011;1611;49.394;11.136;2022-08-19T06:01:39;32.93;;;27.27;;
3197;SDS011;1611;49.394;11.136;2022-08-19T06:04:08;30.73;;;27.40;;
3197;SDS011;1611;49.394;11.136;2022-08-19T06:06:35;31.03;;;27.80;;
3197;SDS011;1611;49.394;11.136;2022-08-19T06:09:02;37.93;;;29.23;;
3197;SDS011;1611;49.394;11.136;2022-08-19T06:11:33;30.53;;;27.23;;
3197;SDS011;1611;49.394;11.136;2022-08-19T06:14:03;30.03;;;26.80;;
3197;SDS011;1611;49.394;11.136;2022-08-19T06:16:33;27.17;;;24.00;;
3197;SDS011;1611;49.394;11.136;2022-08-19T06:19:02;27.47;;;24.43;;
3197;SDS011;1611;49.394;11.136;2022-08-19T06:21:31;28.90;;;25.47;;
3197;SDS011;1611;49.394;11.136;2022-08-19T06:23:58;27.93;;;23.47;;
3197;SDS011;1611;49.394;11.136;2022-08-19T06:26:26;29.47;;;25.27;;
3197;SDS011;1611;49.394;11.136;2022-08-19T06:28:53;27.63;;;23.90;;
3197;SDS011;1611;49.394;11.136;2022-08-19T06:31:21;26.60;;;23.83;;
3197;SDS011;1611;49.394;11.136;2022-08-19T06:33:51;27.67;;;24.00;;
3197;SDS011;1611;49.394;11.136;2022-08-19T06:36:20;28.43;;;23.47;;
3197;SDS011;1611;49.394;11.136;2022-08-19T06:38:52;26.07;;;23.30;;
3197;SDS011;1611;49.394;11.136;2022-08-19T06:41:19;28.40;;;25.33;;
3197;SDS011;1611;49.394;11.136;2022-08-19T06:43:46;28.07;;;25.20;;
3197;SDS011;1611;49.394;11.136;2022-08-19T06:46:14;27.30;;;24.60;;
3197;SDS011;1611;49.394;11.136;2022-08-19T06:48:42;25.37;;;22.73;;
3197;SDS011;1611;49.394;11.136;2022-08-19T06:51:09;27.13;;;21.73;;
3197;SDS011;1611;49.394;11.136;2022-08-19T06:53:37;30.60;;;25.13;;
3197;SDS011;1611;49.394;11.136;2022-08-19T06:56:05;26.07;;;23.30;;
3197;SDS011;1611;49.394;11.136;2022-08-19T06:58:32;26.50;;;23.73;;
3197;SDS011;1611;49.394;11.136;2022-08-19T07:00:59;25.77;;;23.13;;
3197;SDS011;1611;49.394;11.136;2022-08-19T07:03:28;26.03;;;23.47;;
3197;SDS011;1611;49.394;11.136;2022-08-19T07:05:57;26.00;;;23.20;;
3197;SDS011;1611;49.394;11.136;2022-08-19T07:08:24;24.10;;;21.17;;
3197;SDS011;1611;49.394;11.136;2022-08-19T07:10:53;26.03;;;23.33;;
3197;SDS011;1611;49.394;11.136;2022-08-19T07:13:20;25.30;;;22.70;;
3197;SDS011;1611;49.394;11.136;2022-08-19T07:15:47;22.07;;;19.77;;
3197;SDS011;1611;49.394;11.136;2022-08-19T07:18:15;25.00;;;20.80;;
3197;SDS011;1611;49.394;11.136;2022-08-19T07:20:42;25.10;;;22.47;;
3197;SDS011;1611;49.394;11.136;2022-08-19T07:23:09;23.60;;;21.20;;
3197;SDS011;1611;49.394;11.136;2022-08-19T07:25:36;25.13;;;20.70;;
3197;SDS011;1611;49.394;11.136;2022-08-19T07:28:04;24.43;;;20.97;;
3197;SDS011;1611;49.394;11.136;2022-08-19T07:30:32;27.50;;;21.50;;
3197;SDS011;1611;49.394;11.136;2022-08-19T07:33:01;25.87;;;23.00;;
3197;SDS011;1611;49.394;11.136;2022-08-19T07:35:28;23.00;;;20.60;;
3197;SDS011;1611;49.394;11.136;2022-08-19T07:37:57;23.70;;;21.30;;
3197;SDS011;1611;49.394;11.136;2022-08-19T07:40:28;23.53;;;21.13;;
3197;SDS011;1611;49.394;11.136;2022-08-19T07:42:55;26.00;;;23.40;;
3197;SDS011;1611;49.394;11.136;2022-08-19T07:45:23;27.20;;;20.97;;
3197;SDS011;1611;49.394;11.136;2022-08-19T07:47:50;22.97;;;20.50;;
3197;SDS011;1611;49.394;11.136;2022-08-19T07:50:17;20.83;;;18.70;;
3197;SDS011;1611;49.394;11.136;2022-08-19T07:52:45;21.87;;;19.60;;
3197;SDS011;1611;49.394;11.136;2022-08-19T07:55:12;19.83;;;17.00;;
3197;SDS011;1611;49.394;11.136;2022-08-19T07:57:39;20.57;;;18.50;;
3197;SDS011;1611;49.394;11.136;2022-08-19T08:00:06;19.67;;;17.90;;
3197;SDS011;1611;49.394;11.136;2022-08-19T08:02:35;21.93;;;17.80;;
3197;SDS011;1611;49.394;11.136;2022-08-19T08:05:04;19.00;;;16.90;;
3197;SDS011;1611;49.394;11.136;2022-08-19T08:07:48;22.50;;;17.80;;
3197;SDS011;1611;49.394;11.136;2022-08-19T08:10:32;21.00;;;18.80;;
3197;SDS011;1611;49.394;11.136;2022-08-19T08:12:59;21.63;;;18.10;;
3197;SDS011;1611;49.394;11.136;2022-08-19T08:15:26;20.37;;;18.40;;
3197;SDS011;1611;49.394;11.136;2022-08-19T08:17:54;19.40;;;17.50;;
3197;SDS011;1611;49.394;11.136;2022-08-19T08:20:22;19.97;;;17.97;;
3197;SDS011;1611;49.394;11.136;2022-08-19T08:22:49;21.47;;;18.37;;
3197;SDS011;1611;49.394;11.136;2022-08-19T08:25:34;19.67;;;17.73;;
3197;SDS011;1611;49.394;11.136;2022-08-19T08:28:03;21.53;;;19.00;;
3197;SDS011;1611;49.394;11.136;2022-08-19T08:30:30;77.50;;;32.03;;
3197;SDS011;1611;49.394;11.136;2022-08-19T08:32:59;21.50;;;19.00;;
3197;SDS011;1611;49.394;11.136;2022-08-19T08:35:25;28.07;;;20.93;;
3197;SDS011;1611;49.394;11.136;2022-08-19T08:37:53;23.80;;;20.97;;
3197;SDS011;1611;49.394;11.136;2022-08-19T08:40:22;20.53;;;18.37;;
3197;SDS011;1611;49.394;11.136;2022-08-19T08:42:55;21.60;;;19.40;;
3197;SDS011;1611;49.394;11.136;2022-08-19T08:45:27;22.70;;;20.30;;
3197;SDS011;1611;49.394;11.136;2022-08-19T08:47:55;21.63;;;19.33;;
3197;SDS011;1611;49.394;11.136;2022-08-19T08:50:29;23.00;;;18.60;;
3197;SDS011;1611;49.394;11.136;2022-08-19T08:53:01;22.67;;;20.37;;
3197;SDS011;1611;49.394;11.136;2022-08-19T08:55:30;29.20;;;20.03;;
3197;SDS011;1611;49.394;11.136;2022-08-19T08:57:58;21.17;;;18.97;;
3197;SDS011;1611;49.394;11.136;2022-08-19T09:00:28;22.20;;;17.43;;
3197;SDS011;1611;49.394;11.136;2022-08-19T09:02:58;23.60;;;18.83;;
3197;SDS011;1611;49.394;11.136;2022-08-19T09:05:30;20.80;;;18.40;;
3197;SDS011;1611;49.394;11.136;2022-08-19T09:08:07;19.70;;;17.10;;
3197;SDS011;1611;49.394;11.136;2022-08-19T09:10:39;18.33;;;16.17;;
3197;SDS011;1611;49.394;11.136;2022-08-19T09:13:12;18.67;;;16.87;;
3197;SDS011;1611;49.394;11.136;2022-08-19T09:15:49;21.90;;;17.20;;
3197;SDS011;1611;49.394;11.136;2022-08-19T09:18:21;18.90;;;17.00;;
3197;SDS011;1611;49.394;11.136;2022-08-19T09:20:49;19.47;;;17.40;;
3197;SDS011;1611;49.394;11.136;2022-08-19T09:23:15;22.33;;;19.43;;
3197;SDS011;1611;49.394;11.136;2022-08-19T09:25:42;28.93;;;19.77;;
3197;SDS011;1611;49.394;11.136;2022-08-19T09:28:09;19.67;;;17.43;;
3197;SDS011;1611;49.394;11.136;2022-08-19T09:30:38;22.13;;;20.00;;
3197;SDS011;1611;49.394;11.136;2022-08-19T09:33:06;21.73;;;19.63;;
3197;SDS011;1611;49.394;11.136;2022-08-19T09:35:33;21.67;;;19.43;;
3197;SDS011;1611;49.394;11.136;2022-08-19T09:38:02;23.20;;;20.87;;
3197;SDS011;1611;49.394;11.136;2022-08-19T09:40:29;27.47;;;22.90;;
3197;SDS011;1611;49.394;11.136;2022-08-19T09:42:56;32.43;;;27.87;;
3197;SDS011;1611;49.394;11.136;2022-08-19T09:45:25;35.10;;;30.70;;
3197;SDS011;1611;49.394;11.136;2022-08-19T09:47:52;37.83;;;31.40;;
3197;SDS011;1611;49.394;11.136;2022-08-19T09:50:19;34.33;;;30.70;;
3197;SDS011;1611;49.394;11.136;2022-08-19T09:52:46;33.40;;;29.23;;
3197;SDS011;1611;49.394;11.136;2022-08-19T09:55:14;37.43;;;29.60;;
3197;SDS011;1611;49.394;11.136;2022-08-19T09:57:42;38.43;;;31.33;;
3197;SDS011;1611;49.394;11.136;2022-08-19T10:00:09;35.87;;;29.30;;
3197;SDS011;1611;49.394;11.136;2022-08-19T10:02:36;36.27;;;28.43;;
3197;SDS011;1611;49.394;11.136;2022-08-19T10:05:04;38.33;;;31.67;;
3197;SDS011;1611;49.394;11.136;2022-08-19T10:07:48;35.97;;;29.33;;
3197;SDS011;1611;49.394;11.136;2022-08-19T10:10:17;37.70;;;30.43;;
3197;SDS011;1611;49.394;11.136;2022-08-19T10:12:44;34.13;;;29.20;;
3197;SDS011;1611;49.394;11.136;2022-08-19T10:15:12;40.63;;;29.00;;
3197;SDS011;1611;49.394;11.136;2022-08-19T10:17:39;38.23;;;29.70;;
3197;SDS011;1611;49.394;11.136;2022-08-19T10:20:06;36.07;;;30.00;;
3197;SDS011;1611;49.394;11.136;2022-08-19T10:22:34;34.07;;;29.00;;
3197;SDS011;1611;49.394;11.136;2022-08-19T10:25:02;34.00;;;28.17;;
3197;SDS011;1611;49.394;11.136;2022-08-19T10:27:31;32.43;;;27.20;;
3197;SDS011;1611;49.394;11.136;2022-08-19T10:29:58;33.77;;;28.60;;
3197;SDS011;1611;49.394;11.136;2022-08-19T10:32:26;30.87;;;27.50;;
3197;SDS011;1611;49.394;11.136;2022-08-19T10:34:54;35.53;;;28.40;;
3197;SDS011;1611;49.394;11.136;2022-08-19T10:37:21;29.57;;;26.50;;
3197;SDS011;1611;49.394;11.136;2022-08-19T10:39:48;29.97;;;26.67;;
3197;SDS011;1611;49.394;11.136;2022-08-19T10:42:14;33.30;;;28.40;;
3197;SDS011;1611;49.394;11.136;2022-08-19T10:44:44;30.80;;;26.70;;
3197;SDS011;1611;49.394;11.136;2022-08-19T10:47:13;33.83;;;27.73;;
3197;SDS011;1611;49.394;11.136;2022-08-19T10:49:40;31.30;;;27.90;;
3197;SDS011;1611;49.394;11.136;2022-08-19T10:52:20;37.40;;;28.47;;
3197;SDS011;1611;49.394;11.136;2022-08-19T10:54:59;30.93;;;26.30;;
3197;SDS011;1611;49.394;11.136;2022-08-19T10:57:43;36.50;;;27.80;;
3197;SDS011;1611;49.394;11.136;2022-08-19T11:00:12;35.97;;;28.77;;
3197;SDS011;1611;49.394;11.136;2022-08-19T11:02:40;35.40;;;29.50;;
3197;SDS011;1611;49.394;11.136;2022-08-19T11:05:07;34.90;;;30.10;;
3197;SDS011;1611;49.394;11.136;2022-08-19T11:07:35;44.07;;;31.33;;
3197;SDS011;1611;49.394;11.136;2022-08-19T11:10:03;41.20;;;31.30;;
3197;SDS011;1611;49.394;11.136;2022-08-19T11:12:30;40.33;;;32.33;;
3197;SDS011;1611;49.394;11.136;2022-08-19T11:14:58;34.60;;;29.80;;
3197;SDS011;1611;49.394;11.136;2022-08-19T11:17:26;42.67;;;32.30;;
3197;SDS011;1611;49.394;11.136;2022-08-19T11:19:53;38.67;;;30.23;;
3197;SDS011;1611;49.394;11.136;2022-08-19T11:22:20;36.77;;;30.90;;
3197;SDS011;1611;49.394;11.136;2022-08-19T11:24:46;36.67;;;29.53;;
3197;SDS011;1611;49.394;11.136;2022-08-19T11:27:13;46.33;;;32.10;;
3197;SDS011;1611;49.394;11.136;2022-08-19T11:29:40;40.97;;;30.80;;
3197;SDS011;1611;49.394;11.136;2022-08-19T11:32:07;49.90;;;34.80;;
3197;SDS011;1611;49.394;11.136;2022-08-19T11:34:37;36.70;;;30.13;;
3197;SDS011;1611;49.394;11.136;2022-08-19T11:37:04;39.63;;;31.80;;
3197;SDS011;1611;49.394;11.136;2022-08-19T11:39:33;36.90;;;32.33;;
3197;SDS011;1611;49.394;11.136;2022-08-19T11:42:02;36.23;;;31.37;;
3197;SDS011;1611;49.394;11.136;2022-08-19T11:44:50;39.40;;;33.93;;
3197;SDS011;1611;49.394;11.136;2022-08-19T11:47:18;39.57;;;31.63;;
3197;SDS011;1611;49.394;11.136;2022-08-19T11:49:46;40.13;;;34.13;;
3197;SDS011;1611;49.394;11.136;2022-08-19T11:52:13;38.50;;;31.20;;
3197;SDS011;1611;49.394;11.136;2022-08-19T11:54:40;38.97;;;30.93;;
3197;SDS011;1611;49.394;11.136;2022-08-19T11:57:07;39.60;;;34.13;;
3197;SDS011;1611;49.394;11.136;2022-08-19T11:59:34;49.90;;;37.00;;
3197;SDS011;1611;49.394;11.136;2022-08-19T12:02:00;58.63;;;38.60;;
3197;SDS011;1611;49.394;11.136;2022-08-19T12:04:27;42.17;;;34.80;;
3197;SDS011;1611;49.394;11.136;2022-08-19T12:06:55;46.00;;;34.57;;
3197;SDS011;1611;49.394;11.136;2022-08-19T12:09:22;40.53;;;34.67;;
3197;SDS011;1611;49.394;11.136;2022-08-19T12:11:49;53.80;;;39.27;;
3197;SDS011;1611;49.394;11.136;2022-08-19T12:14:16;39.10;;;32.60;;
3197;SDS011;1611;49.394;11.136;2022-08-19T12:16:43;43.70;;;35.10;;
3197;SDS011;1611;49.394;11.136;2022-08-19T12:19:11;44.03;;;35.90;;
3197;SDS011;1611;49.394;11.136;2022-08-19T12:21:38;40.73;;;35.20;;
3197;SDS011;1611;49.394;11.136;2022-08-19T12:24:07;34.17;;;30.60;;
3197;SDS011;1611;49.394;11.136;2022-08-19T12:26:34;46.07;;;34.70;;
3197;SDS011;1611;49.394;11.136;2022-08-19T12:29:01;43.93;;;34.47;;
3197;SDS011;1611;49.394;11.136;2022-08-19T12:31:28;40.93;;;34.60;;
3197;SDS011;1611;49.394;11.136;2022-08-19T12:33:55;45.50;;;37.07;;
3197;SDS011;1611;49.394;11.136;2022-08-19T12:36:23;45.70;;;36.53;;
3197;SDS011;1611;49.394;11.136;2022-08-19T12:38:50;47.70;;;38.27;;
3197;SDS011;1611;49.394;11.136;2022-08-19T12:41:19;44.93;;;36.27;;
3197;SDS011;1611;49.394;11.136;2022-08-19T12:43:47;43.07;;;35.80;;
3197;SDS011;1611;49.394;11.136;2022-08-19T12:46:15;40.77;;;34.77;;
3197;SDS011;1611;49.394;11.136;2022-08-19T12:48:43;37.97;;;33.27;;
3197;SDS011;1611;49.394;11.136;2022-08-19T12:51:11;41.53;;;34.00;;
3197;SDS011;1611;49.394;11.136;2022-08-19T12:53:40;35.70;;;30.63;;
3197;SDS011;1611;49.394;11.136;2022-08-19T12:56:07;36.90;;;32.60;;
3197;SDS011;1611;49.394;11.136;2022-08-19T12:58:37;38.47;;;31.33;;
3197;SDS011;1611;49.394;11.136;2022-08-19T13:01:07;34.13;;;30.53;;
3197;SDS011;1611;49.394;11.136;2022-08-19T13:03:35;37.60;;;33.00;;
3197;SDS011;1611;49.394;11.136;2022-08-19T13:06:03;45.17;;;35.63;;
3197;SDS011;1611;49.394;11.136;2022-08-19T13:08:30;35.30;;;31.50;;
3197;SDS011;1611;49.394;11.136;2022-08-19T13:10:57;32.23;;;28.73;;
3197;SDS011;1611;49.394;11.136;2022-08-19T13:13:24;35.37;;;28.33;;
3197;SDS011;1611;49.394;11.136;2022-08-19T13:15:59;36.50;;;32.30;;
3197;SDS011;1611;49.394;11.136;2022-08-19T13:18:28;37.23;;;32.53;;
3197;SDS011;1611;49.394;11.136;2022-08-19T13:20:54;33.53;;;29.93;;
3197;SDS011;1611;49.394;11.136;2022-08-19T13:23:21;33.93;;;30.03;;
3197;SDS011;1611;49.394;11.136;2022-08-19T13:25:55;37.30;;;30.20;;
3197;SDS011;1611;49.394;11.136;2022-08-19T13:28:22;34.70;;;31.00;;
3197;SDS011;1611;49.394;11.136;2022-08-19T13:30:49;34.30;;;29.60;;
3197;SDS011;1611;49.394;11.136;2022-08-19T13:33:35;34.00;;;30.33;;
3197;SDS011;1611;49.394;11.136;2022-08-19T13:36:01;41.60;;;30.67;;
3197;SDS011;1611;49.394;11.136;2022-08-19T13:38:32;36.37;;;32.23;;
3197;SDS011;1611;49.394;11.136;2022-08-19T13:41:03;38.97;;;34.80;;
3197;SDS011;1611;49.394;11.136;2022-08-19T13:43:32;38.07;;;34.00;;
3197;SDS011;1611;49.394;11.136;2022-08-19T13:45:58;43.73;;;36.97;;
3197;SDS011;1611;49.394;11.136;2022-08-19T13:48:27;47.00;;;38.43;;
3197;SDS011;1611;49.394;11.136;2022-08-19T13:50:56;47.60;;;36.90;;
3197;SDS011;1611;49.394;11.136;2022-08-19T13:53:23;52.83;;;39.20;;
3197;SDS011;1611;49.394;11.136;2022-08-19T13:55:50;42.13;;;36.43;;
3197;SDS011;1611;49.394;11.136;2022-08-19T13:58:18;49.03;;;39.90;;
3197;SDS011;1611;49.394;11.136;2022-08-19T14:00:45;41.27;;;35.13;;
3197;SDS011;1611;49.394;11.136;2022-08-19T14:03:13;45.17;;;37.87;;
3197;SDS011;1611;49.394;11.136;2022-08-19T14:05:40;41.93;;;36.03;;
3197;SDS011;1611;49.394;11.136;2022-08-19T14:08:08;43.43;;;37.17;;
3197;SDS011;1611;49.394;11.136;2022-08-19T14:10:35;41.63;;;33.07;;
3197;SDS011;1611;49.394;11.136;2022-08-19T14:13:03;47.30;;;33.90;;
3197;SDS011;1611;49.394;11.136;2022-08-19T14:15:30;37.70;;;33.37;;
3197;SDS011;1611;49.394;11.136;2022-08-19T14:17:57;39.03;;;32.93;;
3197;SDS011;1611;49.394;11.136;2022-08-19T14:20:24;33.37;;;29.77;;
3197;SDS011;1611;49.394;11.136;2022-08-19T14:22:52;28.80;;;25.70;;
3197;SDS011;1611;49.394;11.136;2022-08-19T14:25:22;37.50;;;29.43;;
3197;SDS011;1611;49.394;11.136;2022-08-19T14:27:49;32.43;;;26.70;;
3197;SDS011;1611;49.394;11.136;2022-08-19T14:30:17;31.70;;;28.13;;
3197;SDS011;1611;49.394;11.136;2022-08-19T14:32:46;34.13;;;27.70;;
3197;SDS011;1611;49.394;11.136;2022-08-19T14:35:13;32.17;;;27.20;;
3197;SDS011;1611;49.394;11.136;2022-08-19T14:37:43;28.17;;;23.00;;
3197;SDS011;1611;49.394;11.136;2022-08-19T14:40:12;27.83;;;24.50;;
3197;SDS011;1611;49.394;11.136;2022-08-19T14:42:41;25.27;;;22.23;;